00:32
Airports
Links
Donate
Help keep this website running!
PayPal
Bitcoin
METAR
CYSB 250000Z 04007KT 20SM FEW098 SCT250 18/12 A3004 RMK AC1CI2 SLP179 DENSITY ALT 1700FT
Current Weather Conditions at CYSB
VFR 00:00:00 25-07-17
Altimeter:30.04 hg
Temp:18.0°c 64°f
Dew point:12.0°c 54°f
Wind:7 knots, 8.1 mph, 4 m/s, from 40°
Visibility:20.0 statute miles
25000(SCT) Scattered
9800(FEW) A few
Past METAR reports
VFR 23:00:00 24-07-17
Altimeter:30.04 hg
Temp:19.0°c 66°f
Dew point:12.0°c 54°f
Wind:11 knots, 12.7 mph, 6 m/s, from 30°
Visibility:20.0 statute miles
25000(SCT) Scattered
9800(FEW) A few
CYSB 242300Z 03011G17KT 20SM FEW098 SCT250 19/12 A3004 RMK AC2CI2 SLP176 DENSITY ALT 1800FT
VFR 22:00:00 24-07-17
Altimeter:30.02 hg
Temp:19.0°c 66°f
Dew point:11.0°c 52°f
Wind:12 knots, 13.8 mph, 6 m/s, from 30°
Visibility:20.0 statute miles
10000(SCT) Scattered
2000(FEW) A few
CYSB 242200Z 03012KT 20SM FEW020 SCT100 19/11 A3002 RMK SC1AC3 SLP172 DENSITY ALT 1800FT
VFR 21:00:00 24-07-17
Altimeter:30.01 hg
Temp:17.0°c 63°f
Dew point:12.0°c 54°f
Wind:9 knots, 10.4 mph, 5 m/s, from 20°
Visibility:20.0 statute miles
9200(BKN) Broken
2500(FEW) A few
CYSB 242100Z 02009G15KT 20SM FEW025 BKN092 17/12 A3001 RMK SC1AC4 SLP169 DENSITY ALT 1600FT
VFR 20:00:00 24-07-17
Altimeter:30.00 hg
Temp:18.0°c 64°f
Dew point:11.0°c 52°f
Wind:13 knots, 15 mph, 7 m/s, from 30°
Visibility:20.0 statute miles
8500(BKN) Broken
2500(FEW) A few
CYSB 242000Z 03013KT 20SM FEW025 BKN085 18/11 A3000 RMK SC1AC4 SLP166 DENSITY ALT 1700FT
VFR 19:00:00 24-07-17
Altimeter:30.00 hg
Temp:16.0°c 61°f
Dew point:10.0°c 50°f
Wind:10 knots, 11.5 mph, 5 m/s, from 30°
Visibility:20.0 statute miles
8000(BKN) Broken
2000(FEW) A few
CYSB 241900Z 03010G18KT 20SM FEW020 BKN080 16/10 A3000 RMK CF1AC6 SLP167 DENSITY ALT 1500FT
TAF
TAF CYSB 241939Z 2420/2508 03012KT P6SM BKN070 TEMPO 2420/2422 P6SM -SHRA FM242200 VRB03KT P6SM FEW050 RMK NXT FCST BY 250200Z
Forecast at CYSB
20:00 24-07-17 to 22:00 24-07-17
Wind:12 Knots from 30°
Visibility:6.21 statute miles
7000BKN Broken
TEMPO 20:00 24-07-17 to 22:00 24-07-17
-SHRA
Visibility:6.21 statute miles
FM 22:00 24-07-17 to 08:00 25-07-17
Wind:3 Knots from 360°
Visibility:6.21 statute miles
5000FEW A few